createdAt,value
2022-10-11T00:00:07.459Z,8.08
2022-10-11T00:02:35.366Z,8.17
2022-10-11T00:05:04.827Z,8.17
2022-10-11T00:07:32.598Z,8.18
2022-10-11T00:10:00.521Z,8.16
2022-10-11T00:12:28.297Z,7.97
2022-10-11T00:14:56.021Z,7.83
2022-10-11T00:17:24.008Z,7.65
2022-10-11T00:19:51.764Z,7.56
2022-10-11T00:22:20.874Z,7.45
2022-10-11T00:24:48.579Z,7.39
2022-10-11T00:27:16.415Z,7.31
2022-10-11T00:29:44.183Z,7.26
2022-10-11T00:32:12.012Z,7.43
2022-10-11T00:34:39.774Z,7.46
2022-10-11T00:37:07.528Z,7.36
2022-10-11T00:39:36.655Z,8.99
2022-10-11T00:42:05.106Z,9.97
2022-10-11T00:44:34.022Z,10.53
2022-10-11T00:47:04.118Z,11.00
2022-10-11T00:49:36.819Z,11.22
2022-10-11T00:52:08.198Z,11.65
2022-10-11T00:54:42.791Z,11.38
2022-10-11T00:57:15.095Z,11.61
2022-10-11T00:59:46.277Z,11.78
2022-10-11T01:02:15.387Z,11.75
2022-10-11T01:04:43.734Z,12.02
2022-10-11T01:07:12.751Z,12.20
2022-10-11T01:09:41.842Z,12.03
2022-10-11T01:12:16.751Z,12.34
2022-10-11T01:15:00.885Z,12.67
2022-10-11T01:17:37.905Z,12.80
2022-10-11T01:20:26.664Z,12.50
2022-10-11T01:23:29.642Z,12.53
2022-10-11T01:26:14.103Z,12.48
2022-10-11T01:28:50.166Z,12.40
2022-10-11T01:31:25.065Z,12.47
2022-10-11T01:33:56.679Z,12.22
2022-10-11T01:36:32.564Z,12.04
2022-10-11T01:39:05.296Z,12.19
2022-10-11T01:41:48.229Z,12.27
2022-10-11T01:44:16.665Z,12.24
2022-10-11T01:46:45.777Z,12.34
2022-10-11T01:49:13.633Z,12.43
2022-10-11T01:51:47.132Z,12.53
2022-10-11T01:54:56.666Z,12.57
2022-10-11T01:57:49.770Z,12.54
2022-10-11T02:00:20.581Z,12.80
2022-10-11T02:03:06.571Z,12.74
2022-10-11T02:05:40.082Z,12.03
2022-10-11T02:08:15.121Z,10.96
2022-10-11T02:10:47.366Z,9.98
2022-10-11T02:13:22.529Z,9.40
2022-10-11T02:15:51.573Z,8.95
2022-10-11T02:18:23.921Z,8.37
2022-10-11T02:20:52.909Z,7.97
2022-10-11T02:23:26.517Z,7.49
2022-10-11T02:25:56.098Z,7.12
2022-10-11T02:28:27.678Z,7.07
2022-10-11T02:30:57.695Z,6.90
2022-10-11T02:33:32.696Z,6.90
2022-10-11T02:36:07.428Z,6.77
2022-10-11T02:38:41.178Z,6.94
2022-10-11T02:41:16.273Z,7.31
2022-10-11T02:43:49.082Z,7.43
2022-10-11T02:46:17.828Z,7.32
2022-10-11T02:48:46.998Z,7.61
2022-10-11T02:51:15.394Z,7.55
2022-10-11T02:53:43.151Z,7.42
2022-10-11T02:56:11.102Z,7.12
2022-10-11T02:58:38.871Z,6.90
2022-10-11T03:01:06.969Z,6.58
2022-10-11T03:03:34.770Z,6.36
2022-10-11T03:06:05.503Z,6.25
2022-10-11T03:08:33.461Z,6.37
2022-10-11T03:11:01.255Z,6.54
2022-10-11T03:13:29.079Z,6.70
2022-10-11T03:16:03.402Z,6.64
2022-10-11T03:18:31.941Z,6.76
2022-10-11T03:20:59.722Z,6.91
2022-10-11T03:23:28.824Z,7.15
2022-10-11T03:25:56.729Z,7.31
2022-10-11T03:28:24.503Z,7.25
2022-10-11T03:30:52.492Z,7.09
2022-10-11T03:33:20.804Z,7.14
2022-10-11T03:35:49.598Z,7.14
2022-10-11T03:38:19.944Z,7.12
2022-10-11T03:40:49.834Z,6.95
2022-10-11T03:43:18.370Z,6.93
2022-10-11T03:45:46.144Z,6.97
2022-10-11T03:48:13.969Z,7.00
2022-10-11T03:50:41.727Z,6.66
2022-10-11T03:53:09.612Z,6.46
2022-10-11T03:55:40.067Z,6.23
2022-10-11T03:58:09.386Z,6.01
2022-10-11T04:00:37.116Z,5.79
2022-10-11T04:03:04.940Z,5.67
2022-10-11T04:05:32.721Z,5.50
2022-10-11T04:08:00.454Z,5.40
2022-10-11T04:10:28.309Z,5.27
2022-10-11T04:12:56.039Z,5.17
2022-10-11T04:15:25.136Z,5.09
2022-10-11T04:17:52.881Z,4.97
2022-10-11T04:20:20.685Z,4.92
2022-10-11T04:22:48.422Z,4.96
2022-10-11T04:25:16.339Z,5.06
2022-10-11T04:27:44.055Z,5.10
2022-10-11T04:30:13.446Z,5.20
2022-10-11T04:32:42.352Z,5.09
2022-10-11T04:35:10.609Z,5.10
2022-10-11T04:37:38.794Z,5.20
2022-10-11T04:40:07.949Z,5.09
2022-10-11T04:42:35.922Z,5.03
2022-10-11T04:45:03.710Z,5.10
2022-10-11T04:47:31.460Z,5.12
2022-10-11T04:50:00.573Z,5.31
2022-10-11T04:52:28.295Z,5.43
2022-10-11T04:54:56.037Z,5.40
2022-10-11T04:57:23.793Z,5.26
2022-10-11T04:59:51.544Z,5.22
2022-10-11T05:02:19.598Z,5.41
2022-10-11T05:04:47.921Z,5.50
2022-10-11T05:07:16.994Z,5.60
2022-10-11T05:09:44.728Z,5.34
2022-10-11T05:12:12.467Z,5.20
2022-10-11T05:14:40.235Z,5.10
2022-10-11T05:17:08.001Z,4.90
2022-10-11T05:19:36.750Z,4.76
2022-10-11T05:22:04.988Z,4.59
2022-10-11T05:24:34.277Z,4.47
2022-10-11T05:27:03.574Z,4.52
2022-10-11T05:29:31.647Z,4.83
2022-10-11T05:31:59.492Z,5.13
2022-10-11T05:34:27.256Z,5.30
2022-10-11T05:36:56.382Z,5.13
2022-10-11T05:39:24.164Z,5.27
2022-10-11T05:41:53.272Z,5.40
2022-10-11T05:44:20.993Z,5.60
2022-10-11T05:46:48.748Z,5.54
2022-10-11T05:49:16.509Z,5.23
2022-10-11T05:51:44.442Z,5.31
2022-10-11T05:54:12.487Z,5.29
2022-10-11T05:56:40.247Z,5.01
2022-10-11T05:59:09.347Z,4.82
2022-10-11T06:01:37.144Z,4.64
2022-10-11T06:04:05.387Z,4.59
2022-10-11T06:06:33.159Z,4.57
2022-10-11T06:09:00.905Z,4.62
2022-10-11T06:11:29.015Z,4.61
2022-10-11T06:13:58.972Z,4.61
2022-10-11T06:16:28.659Z,4.61
2022-10-11T06:18:57.326Z,4.85
2022-10-11T06:21:25.864Z,5.33
2022-10-11T06:24:00.870Z,5.98
2022-10-11T06:26:29.798Z,6.53
2022-10-11T06:28:57.624Z,7.09
2022-10-11T06:31:25.608Z,7.91
2022-10-11T06:33:54.735Z,8.62
2022-10-11T06:36:22.868Z,9.20
2022-10-11T06:38:52.570Z,9.65
2022-10-11T06:41:24.575Z,10.23
2022-10-11T06:43:52.577Z,10.80
2022-10-11T06:46:22.095Z,11.20
2022-10-11T06:48:50.929Z,11.61
2022-10-11T06:51:22.109Z,12.19
2022-10-11T06:53:50.691Z,12.69
2022-10-11T06:56:19.187Z,12.98
2022-10-11T06:58:47.296Z,13.20
2022-10-11T07:01:18.930Z,14.10
2022-10-11T07:03:47.208Z,14.79
2022-10-11T07:06:17.504Z,15.59
2022-10-11T07:08:47.395Z,16.28
2022-10-11T07:11:18.043Z,16.83
2022-10-11T07:13:50.825Z,17.51
2022-10-11T07:16:19.646Z,17.85
2022-10-11T07:18:48.092Z,18.69
2022-10-11T07:21:16.955Z,18.91
2022-10-11T07:23:46.085Z,19.39
2022-10-11T07:26:14.228Z,19.88
2022-10-11T07:28:42.915Z,20.38
2022-10-11T07:31:13.104Z,20.85
2022-10-11T07:33:40.883Z,21.03
2022-10-11T07:36:09.739Z,21.43
2022-10-11T07:38:40.241Z,21.74
2022-10-11T07:41:10.286Z,21.95
2022-10-11T07:43:38.613Z,22.04
2022-10-11T07:46:07.286Z,22.53
2022-10-11T07:48:36.870Z,23.00
2022-10-11T07:51:06.654Z,23.24
2022-10-11T07:53:39.388Z,23.66
2022-10-11T07:56:09.446Z,23.63
2022-10-11T07:58:37.352Z,23.96
2022-10-11T08:01:05.908Z,24.34
2022-10-11T08:03:33.708Z,24.74
2022-10-11T08:06:03.045Z,24.78
2022-10-11T08:08:31.079Z,25.26
2022-10-11T08:10:59.151Z,25.58
2022-10-11T08:13:28.404Z,25.65
2022-10-11T08:15:56.344Z,25.59
2022-10-11T08:18:24.184Z,26.00
2022-10-11T08:20:52.011Z,26.24
2022-10-11T08:23:20.093Z,26.39
2022-10-11T08:25:48.922Z,26.80
2022-10-11T08:28:17.644Z,27.12
2022-10-11T08:30:51.562Z,27.54
2022-10-11T08:33:19.430Z,27.02
2022-10-11T08:35:47.344Z,27.27
2022-10-11T08:38:15.393Z,27.37
2022-10-11T08:40:48.110Z,27.61
2022-10-11T08:43:27.951Z,27.77
2022-10-11T08:46:00.079Z,27.88
2022-10-11T08:48:34.454Z,27.94
2022-10-11T08:51:06.444Z,27.91
2022-10-11T08:53:45.536Z,27.92
2022-10-11T08:56:14.780Z,27.70
2022-10-11T08:58:48.407Z,28.16
2022-10-11T09:01:21.473Z,28.08
2022-10-11T09:03:50.068Z,27.87
2022-10-11T09:06:27.054Z,27.06
2022-10-11T09:09:06.255Z,27.26
2022-10-11T09:11:47.317Z,27.60
2022-10-11T09:14:40.692Z,27.26
2022-10-11T09:17:17.368Z,27.58
2022-10-11T09:20:20.917Z,28.15
2022-10-11T09:22:58.996Z,28.02
2022-10-11T09:25:30.651Z,28.02
2022-10-11T09:28:14.237Z,27.88
2022-10-11T09:30:48.700Z,28.08
2022-10-11T09:33:21.467Z,28.15
2022-10-11T09:35:51.383Z,28.39
2022-10-11T09:38:36.012Z,27.88
2022-10-11T09:41:12.930Z,28.00
2022-10-11T09:43:40.906Z,27.43
2022-10-11T09:46:20.881Z,26.80
2022-10-11T09:48:51.469Z,27.58
2022-10-11T09:51:22.389Z,27.92
2022-10-11T09:53:53.370Z,28.16
2022-10-11T09:56:22.259Z,27.95
2022-10-11T09:58:50.294Z,26.35
2022-10-11T10:01:25.280Z,26.52
2022-10-11T10:04:08.559Z,26.85
2022-10-11T10:06:36.586Z,27.40
2022-10-11T10:09:27.795Z,27.71
2022-10-11T10:11:56.172Z,27.61
2022-10-11T10:14:27.753Z,28.35
2022-10-11T10:17:04.874Z,27.72
2022-10-11T10:19:44.923Z,27.62
2022-10-11T10:22:19.618Z,26.68
2022-10-11T10:24:49.049Z,26.11
2022-10-11T10:27:21.283Z,24.82
2022-10-11T10:30:13.819Z,24.23
2022-10-11T10:32:49.864Z,24.28
2022-10-11T10:35:31.516Z,24.23
2022-10-11T10:38:08.768Z,24.88
2022-10-11T10:40:42.773Z,23.31
2022-10-11T10:43:19.119Z,24.75
2022-10-11T10:46:17.243Z,23.41
2022-10-11T10:51:54.191Z,24.89
2022-10-11T10:54:34.229Z,25.50
2022-10-11T10:57:05.508Z,23.18
2022-10-11T10:59:47.042Z,22.49
2022-10-11T11:02:39.603Z,21.22
2022-10-11T11:05:18.780Z,22.53
2022-10-11T11:07:52.885Z,21.47
2022-10-11T11:10:23.944Z,19.85
2022-10-11T11:12:58.356Z,19.57
2022-10-11T11:15:36.953Z,20.87
2022-10-11T11:18:20.301Z,22.25
2022-10-11T11:21:00.813Z,22.74
2022-10-11T11:23:40.955Z,22.67
2022-10-11T11:26:16.831Z,22.10
2022-10-11T11:29:12.769Z,21.86
2022-10-11T11:31:50.277Z,21.65
2022-10-11T11:34:24.215Z,22.17
2022-10-11T11:36:56.487Z,22.87
2022-10-11T11:39:30.965Z,22.74
2022-10-11T11:42:02.700Z,22.74
2022-10-11T11:44:32.272Z,21.81
2022-10-11T11:47:04.403Z,22.93
2022-10-11T11:49:36.759Z,22.88
2022-10-11T11:52:06.411Z,23.56
2022-10-11T11:54:48.837Z,21.26
2022-10-11T11:57:24.760Z,20.90
2022-10-11T12:00:00.451Z,20.14
2022-10-11T12:02:43.756Z,20.52
2022-10-11T12:05:13.765Z,20.42
2022-10-11T12:07:55.121Z,20.57
2022-10-11T12:10:29.634Z,21.19
2022-10-11T12:13:09.296Z,21.10
2022-10-11T12:15:37.298Z,19.84
2022-10-11T12:18:15.325Z,19.84
2022-10-11T12:20:44.807Z,20.39
2022-10-11T12:23:43.796Z,20.39
2022-10-11T12:26:33.042Z,20.94
2022-10-11T12:29:04.669Z,21.45
2022-10-11T12:31:33.877Z,20.69
2022-10-11T12:34:21.614Z,21.00
2022-10-11T12:36:50.334Z,20.72
2022-10-11T12:39:52.700Z,21.33
2022-10-11T12:42:31.634Z,19.59
2022-10-11T12:45:34.772Z,20.18
2022-10-11T12:48:21.540Z,20.18
2022-10-11T12:51:03.187Z,20.22
2022-10-11T12:54:02.488Z,20.85
2022-10-11T12:56:48.957Z,20.76
2022-10-11T12:59:20.283Z,19.18
2022-10-11T13:01:54.146Z,20.28
2022-10-11T13:04:26.371Z,18.04
2022-10-11T13:06:56.640Z,18.50
2022-10-11T13:09:29.808Z,19.30
2022-10-11T13:12:04.052Z,19.06
2022-10-11T13:14:37.971Z,18.24
2022-10-11T13:17:09.549Z,18.33
2022-10-11T13:22:22.874Z,18.07
2022-10-11T13:24:51.063Z,17.06
2022-10-11T13:27:21.443Z,17.36
2022-10-11T13:29:52.718Z,17.51
2022-10-11T13:32:23.949Z,16.97
2022-10-11T13:37:30.885Z,16.77
2022-10-11T13:39:59.769Z,17.41
2022-10-11T13:42:31.680Z,16.91
2022-10-11T13:45:01.461Z,16.73
2022-10-11T13:47:31.399Z,16.83
2022-10-11T13:50:09.205Z,16.87
2022-10-11T13:52:37.054Z,16.74
2022-10-11T13:55:22.849Z,16.55
2022-10-11T13:57:52.198Z,16.36
2022-10-11T14:00:26.224Z,16.25
2022-10-11T14:02:58.686Z,16.12
2022-10-11T14:05:30.750Z,16.26
2022-10-11T14:08:00.729Z,16.15
2022-10-11T14:10:29.425Z,15.41
2022-10-11T14:13:03.224Z,15.46
2022-10-11T14:15:34.531Z,15.68
2022-10-11T14:18:03.982Z,15.53
2022-10-11T14:20:38.643Z,15.16
2022-10-11T14:23:07.212Z,15.27
2022-10-11T14:25:37.916Z,15.40
2022-10-11T14:28:06.545Z,15.23
2022-10-11T14:30:35.678Z,15.00
2022-10-11T14:33:03.574Z,14.92
2022-10-11T14:35:35.491Z,14.83
2022-10-11T14:38:03.242Z,14.76
2022-10-11T14:40:32.638Z,14.58
2022-10-11T14:43:00.432Z,14.42
2022-10-11T14:45:28.479Z,14.45
2022-10-11T14:47:57.956Z,14.35
2022-10-11T14:50:40.363Z,14.26
2022-10-11T14:53:09.843Z,14.26
2022-10-11T14:55:38.926Z,14.22
2022-10-11T14:58:08.145Z,14.22
2022-10-11T15:00:36.350Z,14.13
2022-10-11T15:03:09.417Z,14.04
2022-10-11T15:05:37.732Z,14.04
2022-10-11T15:08:07.185Z,13.93
2022-10-11T15:10:37.226Z,13.94
2022-10-11T15:13:06.972Z,13.87
2022-10-11T15:15:36.772Z,13.81
2022-10-11T15:18:08.128Z,13.76
2022-10-11T15:20:38.626Z,13.73
2022-10-11T15:23:07.766Z,13.66
2022-10-11T15:25:35.676Z,13.64
2022-10-11T15:28:03.425Z,13.59
2022-10-11T15:30:38.465Z,13.56
2022-10-11T15:33:10.768Z,13.50
2022-10-11T15:35:38.622Z,13.50
2022-10-11T15:38:06.380Z,13.46
2022-10-11T15:40:36.884Z,13.33
2022-10-11T15:43:05.429Z,13.35
2022-10-11T15:45:33.310Z,13.26
2022-10-11T15:48:01.194Z,13.23
2022-10-11T15:50:35.149Z,13.16
2022-10-11T15:53:04.208Z,13.11
2022-10-11T15:55:32.911Z,13.08
2022-10-11T15:58:01.417Z,13.02
2022-10-11T16:00:29.739Z,12.94
2022-10-11T16:02:58.965Z,12.88
2022-10-11T16:05:28.695Z,12.82
2022-10-11T16:07:57.847Z,12.75
2022-10-11T16:10:25.765Z,12.64
2022-10-11T16:12:53.637Z,12.57
2022-10-11T16:15:21.403Z,12.50
2022-10-11T16:17:49.801Z,12.45
2022-10-11T16:20:21.955Z,12.40
2022-10-11T16:22:50.139Z,12.41
2022-10-11T16:25:20.074Z,12.30
2022-10-11T16:27:48.031Z,12.17
2022-10-11T16:30:17.308Z,12.12
2022-10-11T16:32:45.016Z,12.04
2022-10-11T16:35:14.212Z,11.92
2022-10-11T16:37:42.092Z,11.81
2022-10-11T16:40:11.719Z,11.69
2022-10-11T16:42:41.206Z,11.54
2022-10-11T16:45:12.917Z,11.36
2022-10-11T16:47:41.300Z,11.21
2022-10-11T16:50:10.740Z,11.08
2022-10-11T16:52:38.582Z,11.00
2022-10-11T16:55:07.534Z,10.83
2022-10-11T16:57:37.666Z,10.63
2022-10-11T17:00:09.542Z,10.59
2022-10-11T17:02:37.664Z,10.43
2022-10-11T17:05:06.467Z,10.32
2022-10-11T17:07:34.359Z,10.26
2022-10-11T17:10:02.447Z,10.23
2022-10-11T17:12:31.875Z,10.19
2022-10-11T17:14:59.743Z,10.08
2022-10-11T17:17:29.586Z,9.98
2022-10-11T17:19:57.407Z,9.89
2022-10-11T17:22:25.561Z,9.95
2022-10-11T17:24:53.346Z,9.92
2022-10-11T17:27:21.156Z,10.03
2022-10-11T17:29:48.956Z,9.98
2022-10-11T17:32:16.859Z,9.97
2022-10-11T17:34:46.012Z,9.94
2022-10-11T17:37:14.026Z,9.89
2022-10-11T17:39:41.859Z,9.71
2022-10-11T17:42:09.648Z,9.55
2022-10-11T17:44:37.565Z,9.44
2022-10-11T17:47:05.513Z,9.51
2022-10-11T17:49:33.386Z,9.51
2022-10-11T17:52:02.645Z,9.52
2022-10-11T17:54:30.441Z,9.41
2022-10-11T17:56:58.828Z,9.33
2022-10-11T17:59:28.659Z,9.26
2022-10-11T18:01:56.540Z,9.13
2022-10-11T18:04:29.481Z,9.02
2022-10-11T18:06:57.344Z,8.88
2022-10-11T18:09:27.173Z,8.76
2022-10-11T18:11:55.008Z,8.69
2022-10-11T18:14:22.805Z,8.58
2022-10-11T18:16:50.831Z,8.51
2022-10-11T18:19:18.721Z,8.51
2022-10-11T18:21:46.557Z,8.44
2022-10-11T18:24:16.773Z,8.47
2022-10-11T18:26:46.712Z,8.41
2022-10-11T18:29:14.930Z,8.33
2022-10-11T18:31:43.001Z,8.23
2022-10-11T18:34:13.809Z,8.13
2022-10-11T18:36:41.637Z,8.06
2022-10-11T18:39:12.838Z,8.07
2022-10-11T18:41:44.339Z,8.08
2022-10-11T18:44:15.630Z,8.04
2022-10-11T18:46:44.671Z,7.96
2022-10-11T18:49:13.411Z,7.84
2022-10-11T18:51:42.537Z,7.79
2022-10-11T18:54:15.232Z,7.69
2022-10-11T18:56:46.515Z,7.72
2022-10-11T18:59:15.735Z,7.77
2022-10-11T19:01:45.158Z,7.80
2022-10-11T19:04:15.874Z,7.82
2022-10-11T19:06:47.339Z,7.77
2022-10-11T19:09:21.307Z,7.72
2022-10-11T19:11:49.872Z,7.65
2022-10-11T19:14:21.122Z,7.62
2022-10-11T19:16:51.620Z,7.65
2022-10-11T19:19:21.141Z,7.58
2022-10-11T19:21:49.508Z,7.45
2022-10-11T19:24:18.586Z,7.35
2022-10-11T19:26:47.357Z,7.41
2022-10-11T19:29:18.664Z,7.72
2022-10-11T19:31:51.003Z,7.96
2022-10-11T19:34:19.482Z,8.06
2022-10-11T19:36:50.056Z,7.91
2022-10-11T19:39:19.508Z,7.84
2022-10-11T19:41:47.807Z,7.72
2022-10-11T19:44:16.296Z,7.63
2022-10-11T19:46:52.728Z,7.55
2022-10-11T19:49:24.907Z,7.45
2022-10-11T19:51:55.162Z,7.36
2022-10-11T19:54:23.212Z,7.28
2022-10-11T19:56:51.157Z,7.18
2022-10-11T19:59:20.349Z,7.12
2022-10-11T20:01:52.784Z,7.00
2022-10-11T20:04:47.482Z,6.87
2022-10-11T20:07:11.124Z,6.74
2022-10-11T20:09:38.964Z,6.57
2022-10-11T20:12:07.179Z,6.47
2022-10-11T20:14:35.057Z,6.43
2022-10-11T20:17:02.862Z,6.37
2022-10-11T20:19:32.058Z,6.32
2022-10-11T20:22:00.403Z,6.30
2022-10-11T20:24:32.191Z,6.26
2022-10-11T20:27:00.159Z,6.19
2022-10-11T20:29:29.233Z,6.16
2022-10-11T20:31:58.817Z,6.08
2022-10-11T20:34:27.569Z,5.98
2022-10-11T20:36:56.756Z,5.87
2022-10-11T20:39:24.770Z,5.79
2022-10-11T20:41:52.600Z,5.74
2022-10-11T20:44:20.416Z,5.70
2022-10-11T20:46:48.233Z,5.67
2022-10-11T20:49:16.020Z,5.68
2022-10-11T20:51:43.839Z,5.62
2022-10-11T20:54:13.430Z,5.60
2022-10-11T20:56:41.461Z,5.61
2022-10-11T20:59:09.500Z,5.60
2022-10-11T21:01:39.544Z,5.82
2022-10-11T21:04:18.509Z,5.94
2022-10-11T21:06:47.008Z,6.02
2022-10-11T21:09:17.070Z,6.06
2022-10-11T21:11:45.075Z,6.06
2022-10-11T21:14:12.872Z,6.06
2022-10-11T21:16:40.712Z,6.13
2022-10-11T21:19:08.634Z,6.25
2022-10-11T21:21:36.409Z,6.32
2022-10-11T21:24:04.235Z,6.32
2022-10-11T21:26:35.157Z,6.56
2022-10-11T21:29:04.086Z,6.56
2022-10-11T21:31:34.361Z,6.60
2022-10-11T21:34:02.641Z,6.63
2022-10-11T21:36:30.450Z,6.57
2022-10-11T21:38:58.218Z,6.60
2022-10-11T21:41:29.029Z,6.66
2022-10-11T21:43:59.291Z,6.74
2022-10-11T21:46:54.112Z,6.62
2022-10-11T21:49:16.373Z,6.37
2022-10-11T21:51:44.305Z,6.11
2022-10-11T21:54:12.704Z,5.88
2022-10-11T21:56:40.568Z,5.68
2022-10-11T21:59:12.276Z,5.48
2022-10-11T22:01:41.662Z,5.40
2022-10-11T22:04:11.892Z,5.30
2022-10-11T22:06:40.248Z,5.24
2022-10-11T22:09:08.546Z,5.24
2022-10-11T22:11:36.523Z,5.13
2022-10-11T22:14:04.887Z,5.09
2022-10-11T22:16:35.681Z,5.01
2022-10-11T22:19:03.746Z,5.05
2022-10-11T22:21:31.578Z,5.19
2022-10-11T22:23:59.555Z,5.24
2022-10-11T22:26:30.532Z,5.17
2022-10-11T22:28:58.755Z,5.07
2022-10-11T22:31:26.512Z,5.07
2022-10-11T22:33:56.281Z,5.03
2022-10-11T22:36:25.111Z,4.97
2022-10-11T22:38:53.784Z,4.90
2022-10-11T22:41:22.181Z,4.80
2022-10-11T22:43:49.957Z,4.78
2022-10-11T22:46:18.173Z,4.82
2022-10-11T22:48:45.988Z,4.75
2022-10-11T22:51:15.423Z,4.78
2022-10-11T22:53:43.168Z,4.96
2022-10-11T22:56:11.524Z,5.17
2022-10-11T22:58:39.303Z,5.22
2022-10-11T23:01:08.284Z,5.15
2022-10-11T23:03:36.173Z,4.99
2022-10-11T23:06:04.143Z,4.93
2022-10-11T23:08:33.451Z,4.85
2022-10-11T23:11:03.157Z,4.78
2022-10-11T23:13:30.931Z,4.71
2022-10-11T23:15:58.801Z,4.66
2022-10-11T23:18:26.616Z,4.61
2022-10-11T23:20:54.386Z,4.62
2022-10-11T23:23:22.168Z,4.64
2022-10-11T23:26:01.211Z,4.72
2022-10-11T23:28:29.075Z,4.59
2022-10-11T23:30:56.969Z,4.52
2022-10-11T23:33:24.821Z,4.41
2022-10-11T23:35:52.611Z,4.34
2022-10-11T23:38:20.607Z,4.28
2022-10-11T23:40:48.428Z,4.30
2022-10-11T23:43:17.577Z,4.35
2022-10-11T23:45:45.678Z,4.48
2022-10-11T23:48:13.547Z,4.42
2022-10-11T23:50:41.334Z,4.38
2022-10-11T23:53:09.076Z,4.51
2022-10-11T23:55:36.851Z,4.80
2022-10-11T23:58:04.630Z,4.90
